CheckWX is a tool to help pilots better visualize weather data.  It is not intended as a substitute for an official pre-flight weather briefing.

17:56:50 UTC

KHOT METAR
Memorial Field Airport
Hot Springs, Arkansas, USA
Current

1 hour ago

KHOT 171653Z AUTO VRB04KT 10SM CLR 16/07 A3011 RMK AO2 SLP193 T01610072
Observed
Oct-17 @ 16:53 UTC
Wind
  • Variable at 4 KTS
Visibility
10 SM
Flight Rules
VFR
Cloud Levels
  • Clear skies
Temperature
16°C / 61°F
Dewpoint
C / 45°F
Humidity
55%
Altimeter
30.11" Hg
Pressure
1019.62 hPa
Previous

2 hours ago

KHOT 171553Z AUTO 00000KT 10SM CLR 14/08 A3013 RMK AO2 SLP201 T01390078
Observed
Oct-17 @ 15:53 UTC
Visibility
10 SM
Flight Rules
VFR
Cloud Levels
  • Clear skies
Temperature
14°C / 57°F
Dewpoint
C / 46°F
Humidity
67%
Altimeter
30.13" Hg
Pressure
1020.32 hPa
Previous

3 hours ago

KHOT 171453Z AUTO 10004KT 10SM CLR 11/08 A3014 RMK AO2 SLP205 T01110078 53015
Observed
Oct-17 @ 14:53 UTC
Wind
  • 100° at 4 KTS
Visibility
10 SM
Flight Rules
VFR
Cloud Levels
  • Clear skies
Temperature
11°C / 52°F
Dewpoint
C / 46°F
Humidity
82%
Altimeter
30.14" Hg
Pressure
1020.62 hPa